• Join FlightAware (Why Join?)
  • Login
  • US Flag 
11:29PM EST


 

Airport Tracker/Info


-or-


 

Live Flight TrackerFlight Track Log ✈ AWE50 ✈ 07-Jul-2013 ✈ KPHX - KMSP

Flight Track Log - Related Links

Times and Time Zones

All times are in EDT time to prevent confusion due to time zone crossing. See the AWE50 flight status page for this flight to view local times or setup timezone preferences in your user account.

Time Position Orientation Groundspeed Altitude Reporting Facility
EDT Latitude Longitude Course Direction KTS MPH feet Rate Location/Type
03:22AM 33.4320 -112.0170 270° West 24 28  Level FlightAware
03:24AM 33.4310 -112.0260 262° West 19 22 1,020 Level FlightAware
03:25AM 33.4340 -111.9650 87° East 190 219 3,300 1,860 Climbing FlightAware
03:25AM 33.4350 -111.9460 86° East 212 244 3,500 1,140 Climbing FlightAware
03:26AM 33.4380 -111.9160 83° East 236 272 4,100 1,500 Climbing FlightAware
03:26AM 33.4420 -111.8730 84° East 267 307 4,900 1,560 Climbing FlightAware
03:27AM 33.4470 -111.8590 67° East 276 318 5,200 1,980 Climbing FlightAware
03:27AM 33.4590 -111.8430 48° Northeast 289 333 5,700 2,760 Climbing FlightAware
03:27AM 33.4760 -111.8340 24° Northeast 286 329 6,400 3,180 Climbing FlightAware
03:27AM 33.5130 -111.8280 North 273 314 8,000 2,940 Climbing FlightAware
03:28AM 33.5480 -111.8220 North 274 315 9,200 2,160 Climbing FlightAware
03:29AM 33.6060 -111.8110 North 300 345 10,600 1,440 Climbing FlightAware
03:29AM 33.6670 -111.8000 North 342 394 11,300 1,260 Climbing FlightAware
03:30AM 33.7240 -111.7900 North 368 423 12,200 1,920 Climbing FlightAware
03:31AM 33.7980 -111.7760 North 380 437 13,800 1,980 Climbing FlightAware
03:31AM 33.8730 -111.7620 North 394 453 15,100 1,800 Climbing FlightAware
03:32AM 33.9380 -111.7500 North 405 466 16,200 1,800 Climbing FlightAware
03:33AM 34.0130 -111.7360 North 418 481 17,400 1,680 Climbing FlightAware
03:33AM 34.0970 -111.7110 14° North 432 497 18,600 1,680 Climbing FlightAware
03:34AM 34.1770 -111.6790 18° North 442 509 19,800 1,500 Climbing FlightAware
03:35AM 34.2570 -111.6480 18° North 455 524 20,700 1,440 Climbing FlightAware
03:35AM 34.3360 -111.5920 30° Northeast 461 531 21,900 1,560 Climbing FlightAware
03:36AM 34.4010 -111.5210 42° Northeast 468 539 22,900 1,440 Climbing FlightAware
03:37AM 34.4700 -111.4470 41° Northeast 472 543 23,900 1,440 Climbing FlightAware
03:38AM 34.5370 -111.3740 42° Northeast 475 547 24,900 1,260 Climbing FlightAware
03:38AM 34.6110 -111.2930 42° Northeast 484 557 25,700 840 Climbing FlightAware
03:39AM 34.6770 -111.2190 43° Northeast 497 572 26,100 660 Climbing FlightAware
03:40AM 34.7530 -111.1330 43° Northeast 507 583 26,700 600 Climbing FlightAware
03:40AM 34.8250 -111.0520 43° Northeast 519 597 27,000 660 Climbing FlightAware
03:41AM 34.8990 -110.9680 43° Northeast 521 600 27,700 900 Climbing FlightAware
03:42AM 34.9690 -110.8870 43° Northeast 523 602 28,300 960 Climbing FlightAware
03:42AM 35.0200 -110.8290 43° Northeast 524 603 28,800 660 Climbing FlightAware
03:43AM 35.0890 -110.7500 43° Northeast 519 597 29,100 780 Climbing FlightAware
03:44AM 35.1670 -110.6610 43° Northeast 515 593 30,000 1,260 Climbing FlightAware
03:44AM 35.2300 -110.5890 43° Northeast 512 589 30,800 1,080 Climbing FlightAware
03:44AM 35.2570 -110.5570 44° Northeast 515 593 30,900 780 Climbing FlightAware
03:45AM 35.3590 -110.4400 43° Northeast 516 594 31,800 1,020 Climbing FlightAware
03:46AM 35.4310 -110.3560 44° Northeast 513 590 32,600 780 Climbing FlightAware
03:47AM 35.5080 -110.2660 44° Northeast 500 575 33,000 240 Climbing FlightAware
03:48AM 35.5770 -110.1860 43° Northeast 500 575 33,000  Level FlightAware
03:48AM 35.6430 -110.1100 43° Northeast 501 577 33,000  Level FlightAware
03:49AM 35.7210 -110.0180 44° Northeast 499 574 33,000  Level FlightAware
03:50AM 35.7870 -109.9410 43° Northeast 500 575 33,000  Level FlightAware
03:50AM 35.8590 -109.8560 44° Northeast 500 575 33,000  Level FlightAware
03:51AM 35.9160 -109.7880 44° Northeast 501 577 33,000  Level FlightAware
03:52AM 36.0080 -109.6820 43° Northeast 503 579 33,000  Level FlightAware
03:53AM 36.0600 -109.6220 43° Northeast 503 579 33,000  Level FlightAware
03:53AM 36.1130 -109.5600 43° Northeast 503 579 33,000  Level FlightAware
03:54AM 36.1830 -109.4800 43° Northeast 503 579 33,000  Level FlightAware
03:55AM 36.2350 -109.4200 43° Northeast 503 579 33,000  Level FlightAware
03:55AM 36.3040 -109.3390 43° Northeast 503 579 33,000  Level FlightAware
03:56AM 36.3560 -109.2790 43° Northeast 503 579 33,000  Level FlightAware
03:57AM 36.4080 -109.2190 43° Northeast 503 579 33,000  Level FlightAware
03:57AM 36.4790 -109.1360 43° Northeast 503 579 33,000  Level FlightAware
03:58AM 36.5310 -109.0760 43° Northeast 503 579 33,000 3,420 Level FlightAware
03:59AM 36.6750 -108.8790 48° Northeast 498 573 37,000 2,820 Climbing FlightAware
03:59AM 36.7630 -108.7730 44° Northeast 500 575 37,000  Level FlightAware
04:00AM 36.8160 -108.7080 44° Northeast 501 577 37,000  Level FlightAware
04:01AM 36.8910 -108.6160 44° Northeast 503 579 37,000  Level FlightAware
04:01AM 36.9570 -108.5350 44° Northeast 504 580 37,000  Level FlightAware
04:02AM 37.0320 -108.4430 44° Northeast 504 580 37,000  Level FlightAware
04:03AM 37.1010 -108.3580 44° Northeast 504 580 37,000  Level FlightAware
04:03AM 37.1760 -108.2660 44° Northeast 504 580 37,000  Level FlightAware
04:04AM 37.2440 -108.1810 45° Northeast 506 582 37,000  Level FlightAware
04:05AM 37.3100 -108.0980 45° Northeast 511 588 37,000  Level FlightAware
04:06AM 37.3860 -108.0040 44° Northeast 510 587 37,000  Level FlightAware
04:06AM 37.4540 -107.9190 45° Northeast 505 581 37,000  Level FlightAware
04:07AM 37.5060 -107.8550 44° Northeast 507 583 37,000  Level FlightAware
04:07AM 37.5720 -107.7710 45° Northeast 508 585 37,000  Level FlightAware
04:08AM 37.6400 -107.6850 45° Northeast 509 586 37,000  Level FlightAware
04:09AM 37.7080 -107.6000 45° Northeast 509 586 37,000  Level FlightAware
04:10AM 37.7820 -107.5060 45° Northeast 508 585 37,000  Level FlightAware
04:10AM 37.8470 -107.4230 45° Northeast 508 585 37,000  Level FlightAware
04:11AM 37.9310 -107.3160 45° Northeast 509 586 37,000  Level FlightAware
04:12AM 38.0060 -107.2210 45° Northeast 509 586 37,000  Level FlightAware
04:13AM 38.0813 -107.1240 45° Northeast 37,000  Level FlightAware ADS-B
04:13AM 38.1320 -107.0590 45° Northeast 511 588 37,000  Level FlightAware ADS-B
04:14AM 38.1839 -106.9920 45° Northeast 512 589 37,000  Level FlightAware ADS-B
04:15AM 38.2959 -106.8470 45° Northeast 511 588 37,000  Level FlightAware ADS-B
04:15AM 38.3458 -106.7820 46° Northeast 511 588 37,000  Level FlightAware ADS-B
04:16AM 38.3957 -106.7170 46° Northeast 511 588 37,000  Level FlightAware ADS-B
04:16AM 38.4453 -106.6530 45° Northeast 511 588 37,000  Level FlightAware ADS-B
04:17AM 38.5116 -106.5660 46° Northeast 510 587 37,000  Level FlightAware ADS-B
04:17AM 38.5618 -106.5010 45° Northeast 510 587 37,000  Level FlightAware ADS-B
04:18AM 38.6100 -106.4370 46° Northeast 510 587 37,000  Level FlightAware
04:18AM 38.6577 -106.3750 45° Northeast 512 589 37,000  Level FlightAware ADS-B
04:19AM 38.7072 -106.3090 46° Northeast 513 590 37,000  Level FlightAware ADS-B
04:19AM 38.7568 -106.2440 46° Northeast 514 592 37,000  Level FlightAware ADS-B
04:20AM 38.8067 -106.1780 46° Northeast 511 588 37,000  Level FlightAware ADS-B
04:20AM 38.8595 -106.1080 46° Northeast 509 586 37,000  Level FlightAware ADS-B
04:21AM 38.9198 -106.0280 46° Northeast 508 585 37,000  Level FlightAware ADS-B
04:22AM 38.9695 -105.9610 46° Northeast 508 585 37,000  Level FlightAware ADS-B
04:22AM 39.0184 -105.8960 46° Northeast 508 585 37,000  Level FlightAware ADS-B
04:23AM 39.0686 -105.8290 46° Northeast 507 583 37,000  Level FlightAware ADS-B
04:23AM 39.1179 -105.7630 46° Northeast 508 585 37,000  Level FlightAware ADS-B
04:24AM 39.1678 -105.6960 46° Northeast 507 583 37,000  Level FlightAware ADS-B
04:24AM 39.2167 -105.6300 46° Northeast 506 582 37,000  Level FlightAware ADS-B
04:25AM 39.2662 -105.5630 46° Northeast 506 582 37,000  Level FlightAware ADS-B
04:25AM 39.3157 -105.4960 46° Northeast 509 586 37,000  Level FlightAware ADS-B
04:26AM 39.3651 -105.4290 46° Northeast 511 588 37,000  Level FlightAware ADS-B
04:26AM 39.4153 -105.3610 46° Northeast 513 590 37,000  Level FlightAware ADS-B
04:27AM 39.4655 -105.2930 46° Northeast 514 592 37,000  Level FlightAware ADS-B
04:27AM 39.5150 -105.2250 47° Northeast 513 590 37,000  Level FlightAware ADS-B
04:28AM 39.5646 -105.1570 47° Northeast 511 588 37,000  Level FlightAware ADS-B
04:28AM 39.6133 -105.0910 46° Northeast 510 587 37,000  Level FlightAware ADS-B
04:29AM 39.6631 -105.0220 47° Northeast 511 588 37,000  Level FlightAware ADS-B
04:29AM 39.7125 -104.9540 47° Northeast 512 589 37,000  Level FlightAware ADS-B
04:30AM 39.7613 -104.8870 47° Northeast 512 589 37,000  Level FlightAware ADS-B
04:30AM 39.8100 -104.8190 47° Northeast 507 583 37,000  Level FlightAware ADS-B
04:31AM 39.8577 -104.7530 47° Northeast 499 574 37,000  Level FlightAware ADS-B
04:31AM 39.9052 -104.6880 46° Northeast 498 573 37,000  Level FlightAware ADS-B
04:32AM 39.9530 -104.6210 47° Northeast 499 574 37,000  Level FlightAware ADS-B
04:32AM 40.0042 -104.5490 47° Northeast 497 572 37,000  Level FlightAware ADS-B
04:33AM 40.0524 -104.4820 47° Northeast 499 574 37,000  Level FlightAware ADS-B
04:33AM 40.0998 -104.4150 47° Northeast 500 575 37,000  Level FlightAware ADS-B
04:34AM 40.1474 -104.3480 47° Northeast 500 575 37,000  Level FlightAware ADS-B
04:34AM 40.1953 -104.2810 47° Northeast 500 575 37,000  Level FlightAware ADS-B
04:35AM 40.2431 -104.2130 47° Northeast 500 575 37,000  Level FlightAware ADS-B
04:35AM 40.2906 -104.1460 47° Northeast 501 577 37,000  Level FlightAware ADS-B
04:36AM 40.3378 -104.0800 47° Northeast 502 578 37,000  Level FlightAware ADS-B
04:36AM 40.3853 -104.0120 47° Northeast 501 577 37,000  Level FlightAware ADS-B
04:37AM 40.4334 -103.9430 48° Northeast 502 578 37,000  Level FlightAware ADS-B
04:37AM 40.4817 -103.8750 47° Northeast 502 578 37,000  Level FlightAware ADS-B
04:38AM 40.5298 -103.8060 47° Northeast 502 578 37,000  Level FlightAware ADS-B
04:38AM 40.5776 -103.7370 48° Northeast 501 577 37,000  Level FlightAware ADS-B
04:39AM 40.6247 -103.6700 47° Northeast 502 578 37,000  Level FlightAware ADS-B
04:39AM 40.6720 -103.6020 47° Northeast 501 577 37,000  Level FlightAware ADS-B
04:40AM 40.7217 -103.5300 48° Northeast 501 577 37,000  Level FlightAware ADS-B
04:40AM 40.7688 -103.4620 48° Northeast 500 575 37,000  Level FlightAware ADS-B
04:41AM 40.8154 -103.3940 48° Northeast 499 574 37,000  Level FlightAware ADS-B
04:41AM 40.8620 -103.3260 48° Northeast 498 573 37,000  Level FlightAware ADS-B
04:42AM 40.9086 -103.2590 47° Northeast 499 574 37,000  Level FlightAware ADS-B
04:42AM 40.9551 -103.1910 48° Northeast 500 575 37,000  Level FlightAware ADS-B
04:43AM 41.0019 -103.1220 48° Northeast 500 575 37,000  Level FlightAware ADS-B
04:43AM 41.0516 -103.0490 48° Northeast 500 575 37,000  Level FlightAware ADS-B
04:44AM 41.0804 -103.0040 50° Northeast 500 575 37,000  Level FlightAware ADS-B
04:44AM 41.1066 -102.9580 53° Northeast 501 577 37,000  Level FlightAware ADS-B
04:45AM 41.1440 -102.8790 58° Northeast 501 577 37,000  Level FlightAware ADS-B
04:45AM 41.1801 -102.8000 59° Northeast 501 577 37,000  Level FlightAware ADS-B
04:46AM 41.2163 -102.7200 59° Northeast 501 577 37,000  Level FlightAware ADS-B
04:46AM 41.2564 -102.6310 59° Northeast 502 578 37,000  Level FlightAware ADS-B
04:47AM 41.2926 -102.5510 59° Northeast 503 579 37,000  Level FlightAware ADS-B
04:47AM 41.3288 -102.4700 59° Northeast 504 580 37,000  Level FlightAware ADS-B
04:48AM 41.3652 -102.3890 59° Northeast 505 581 37,000  Level FlightAware ADS-B
04:48AM 41.4011 -102.3090 59° Northeast 506 582 37,000  Level FlightAware ADS-B
04:49AM 41.4370 -102.2280 59° Northeast 507 583 37,000  Level FlightAware ADS-B
04:49AM 41.4728 -102.1480 59° Northeast 506 582 37,000  Level FlightAware ADS-B
04:50AM 41.5088 -102.0670 59° Northeast 506 582 37,000  Level FlightAware ADS-B
04:50AM 41.5447 -101.9850 60° Northeast 507 583 37,000  Level FlightAware ADS-B
04:51AM 41.5804 -101.9040 59° Northeast 506 582 37,000  Level FlightAware ADS-B
04:51AM 41.6196 -101.8150 59° Northeast 506 582 37,000  Level FlightAware ADS-B
04:52AM 41.6552 -101.7340 60° Northeast 507 583 37,000  Level FlightAware ADS-B
04:52AM 41.6910 -101.6520 60° Northeast 509 586 37,000  Level FlightAware ADS-B
04:53AM 41.7268 -101.5700 60° Northeast 509 586 37,000  Level FlightAware ADS-B
04:53AM 41.7627 -101.4870 60° Northeast 511 588 37,000  Level FlightAware ADS-B
04:54AM 41.7983 -101.4050 60° Northeast 512 589 37,000  Level FlightAware ADS-B
04:54AM 41.8345 -101.3210 60° Northeast 513 590 37,000  Level FlightAware ADS-B
04:55AM 41.8703 -101.2380 60° Northeast 513 590 37,000  Level FlightAware ADS-B
04:56AM 41.9397 -101.0781 60° Northeast 513 590 37,000  Level Denver Center
05:02AM 42.3713 -100.0510 60° Northeast 526 605 37,000  Level FlightAware ADS-B
05:02AM 42.4080 -99.9625 61° Northeast 526 605 37,000  Level FlightAware ADS-B
05:03AM 42.4440 -99.8749 61° Northeast 526 605 37,000  Level FlightAware ADS-B
05:03AM 42.4797 -99.7879 61° Northeast 527 606 37,000  Level FlightAware ADS-B
05:04AM 42.5154 -99.7006 61° Northeast 526 605 37,000  Level FlightAware ADS-B
05:04AM 42.5511 -99.6130 61° Northeast 526 605 37,000  Level FlightAware ADS-B
05:05AM 42.5863 -99.5264 61° Northeast 526 605 37,000  Level FlightAware ADS-B
05:05AM 42.6223 -99.4378 61° Northeast 525 604 37,000  Level FlightAware ADS-B
05:06AM 42.6716 -99.3158 61° Northeast 525 604 37,000  Level FlightAware ADS-B
05:07AM 42.7339 -99.1609 61° Northeast 526 605 37,000  Level FlightAware ADS-B
05:07AM 42.7695 -99.0720 61° Northeast 527 606 37,000  Level FlightAware ADS-B
05:08AM 42.8044 -98.9846 61° Northeast 528 608 37,000  Level FlightAware ADS-B
05:08AM 42.8392 -98.8972 61° Northeast 527 606 37,000  Level FlightAware ADS-B
05:09AM 42.8741 -98.8089 62° Northeast 526 605 37,000  Level FlightAware ADS-B
05:09AM 42.9093 -98.7201 62° Northeast 524 603 37,000  Level FlightAware ADS-B
05:10AM 42.9482 -98.6215 62° Northeast 524 603 37,000  Level FlightAware ADS-B
05:10AM 42.9830 -98.5328 62° Northeast 525 604 37,000  Level FlightAware ADS-B
05:11AM 43.0240 -98.4281 62° Northeast 525 604 37,000  Level FlightAware ADS-B
05:12AM 43.0591 -98.3382 62° Northeast 524 603 37,000  Level FlightAware ADS-B
05:12AM 43.0948 -98.2468 62° Northeast 524 603 37,000  Level FlightAware ADS-B
05:13AM 43.1293 -98.1575 62° Northeast 526 605 37,000  Level FlightAware ADS-B
05:13AM 43.1581 -98.0808 63° Northeast 527 606 37,000  Level FlightAware ADS-B
05:14AM 43.1886 -97.9887 66° East 526 605 37,000  Level FlightAware ADS-B
05:14AM 43.2200 -97.8974 65° Northeast 527 606 37,000  Level FlightAware ADS-B
05:15AM 43.2522 -97.8043 65° Northeast 527 606 37,000  Level FlightAware ADS-B
05:15AM 43.2839 -97.7126 65° Northeast 527 606 37,000  Level FlightAware ADS-B
05:16AM 43.3152 -97.6215 65° Northeast 528 608 37,000  Level FlightAware ADS-B
05:16AM 43.3463 -97.5304 65° Northeast 528 608 37,000  Level FlightAware ADS-B
05:17AM 43.3774 -97.4396 65° Northeast 527 606 37,000  Level FlightAware ADS-B
05:18AM 43.4542 -97.2134 65° Northeast 527 606 37,000  Level FlightAware ADS-B
05:19AM 43.5306 -96.9871 65° Northeast 528 608 37,000  Level FlightAware ADS-B
05:20AM 43.5865 -96.8222 65° Northeast 525 604 37,000  Level FlightAware ADS-B
05:20AM 43.6174 -96.7307 65° Northeast 523 602 37,000  Level FlightAware ADS-B
05:21AM 43.6567 -96.6152 65° Northeast 521 600 37,000  Level FlightAware ADS-B
05:22AM 43.6884 -96.5219 65° Northeast 520 598 37,000  Level FlightAware ADS-B
05:22AM 43.7192 -96.4314 65° Northeast 518 596 37,000  Level FlightAware ADS-B
05:23AM 43.7500 -96.3412 65° Northeast 516 594 37,000  Level FlightAware ADS-B
05:23AM 43.7806 -96.2511 65° Northeast 514 592 37,000  Level FlightAware ADS-B
05:24AM 43.8109 -96.1621 65° Northeast 512 589 37,000  Level FlightAware ADS-B
05:24AM 43.8417 -96.0719 65° Northeast 511 588 37,000  Level FlightAware ADS-B
05:25AM 43.8722 -95.9828 65° Northeast 510 587 37,000  Level FlightAware ADS-B
05:25AM 43.9028 -95.8931 65° Northeast 512 589 37,000  Level FlightAware ADS-B
05:26AM 43.9334 -95.8030 65° Northeast 513 590 37,000  Level FlightAware ADS-B
05:26AM 43.9639 -95.7138 65° Northeast 513 590 37,000  Level FlightAware ADS-B
05:27AM 43.9962 -95.6196 64° Northeast 513 590 37,000 -780 Level FlightAware ADS-B
05:27AM 44.0277 -95.5292 64° Northeast 509 586 36,200 -2,160 Descending FlightAware ADS-B
05:29AM 44.1142 -95.2894 64° Northeast 510 587 33,000 -2,160 Descending Minneapolis Center
05:30AM 44.1772 -95.1136 63° Northeast 510 587 31,100 -1,920 Descending Minneapolis Center
05:31AM 44.2400 -94.9419 63° Northeast 502 578 29,200 -1,980 Descending Minneapolis Center
05:32AM 44.3028 -94.7769 62° Northeast 488 562 27,200 -1,800 Descending Minneapolis Center
05:33AM 44.3522 -94.6478 62° Northeast 478 550 25,600 -2,160 Descending Minneapolis Center
05:38AM 44.6360 -93.8520 62° Northeast 381 438 13,900 -2,280 Descending FlightAware
05:38AM 44.6500 -93.7580 78° East 370 426 12,500 -1,980 Descending FlightAware
05:39AM 44.6630 -93.6760 77° East 357 411 11,300 -1,500 Descending FlightAware
05:40AM 44.6770 -93.5800 78° East 325 374 10,500 -1,200 Descending FlightAware
05:40AM 44.6890 -93.4980 78° East 304 350 9,700 -1,440 Descending FlightAware
05:41AM 44.6980 -93.4360 78° East 301 346 8,700 -1,560 Descending FlightAware
05:41AM 44.7020 -93.4040 80° East 301 346 8,300 -1,500 Descending FlightAware
05:42AM 44.7090 -93.3620 77° East 297 342 7,700 -1,740 Descending FlightAware
05:42AM 44.7150 -93.3170 79° East 295 339 7,000 -1,740 Descending FlightAware
05:43AM 44.7270 -93.2370 78° East 290 334 5,800 -1,620 Descending FlightAware
05:43AM 44.7340 -93.1870 79° East 290 334 5,200 -1,380 Descending FlightAware
05:44AM 44.7410 -93.1370 79° East 269 310 4,500 -780 Descending FlightAware
05:44AM 44.7480 -93.0860 79° East 263 303 4,400 -540 Descending FlightAware
05:45AM 44.7550 -93.0350 79° East 237 273 3,900 -840 Descending FlightAware
05:45AM 44.7660 -93.0140 54° Northeast 207 238 3,700 -300 Descending FlightAware
05:46AM 44.7800 -92.9890 52° Northeast 207 238 3,700 -540 Level FlightAware
05:47AM 44.8230 -93.0610 310° West 180 207 3,000 -540 Descending FlightAware
05:47AM 44.8340 -93.0840 304° West 180 207 3,000 -960 Level FlightAware
05:47AM 44.8440 -93.1090 299° West 131 151 2,200 -1,140 Descending FlightAware
05:48AM 44.8580 -93.1410 302° West 129 148 1,700 -420 Descending FlightAware
05:49AM 44.8660 -93.1590 302° West 129 148 1,700  Level FlightAware